Time;durP1;ratioP1;P1;durP2;ratioP2;P2;SDS_P1;SDS_P2;PMS_P1;PMS_P2;Temp;Humidity;BMP_temperature;BMP_pressure;BME280_temperature;BME280_humidity;BME280_pressure;Samples;Min_cycle;Max_cycle;Signal;HPM_P1;HPM_P2
2021/01/07 00:01:40;;;;;;;20.75;10.95;;;2.50;99.90;;;;;;4990091;28;20045;-54
2021/01/07 00:04:07;;;;;;;20.75;10.90;;;2.50;99.90;;;;;;4989936;28;20058;-54
2021/01/07 00:06:33;;;;;;;18.02;11.40;;;2.50;99.90;;;;;;4989946;28;20478;-51
2021/01/07 00:08:59;;;;;;;18.25;11.35;;;2.60;99.90;;;;;;4980059;28;20452;-55
2021/01/07 00:11:24;;;;;;;19.02;10.65;;;2.60;99.90;;;;;;4982145;28;20046;-54
2021/01/07 00:13:50;;;;;;;21.13;11.02;;;2.60;99.90;;;;;;4989669;28;20052;-56
2021/01/07 00:16:16;;;;;;;16.92;10.35;;;2.50;99.90;;;;;;4990573;28;20046;-59
2021/01/07 00:18:42;;;;;;;22.98;10.75;;;2.60;99.90;;;;;;4986327;28;20121;-56
2021/01/07 00:21:08;;;;;;;20.45;10.25;;;2.60;99.90;;;;;;4988425;28;20034;-53
2021/01/07 00:23:33;;;;;;;17.45;10.45;;;2.70;99.90;;;;;;4990780;28;20030;-52
2021/01/07 00:25:59;;;;;;;17.25;9.18;;;2.70;99.90;;;;;;4989422;28;20386;-55
2021/01/07 00:28:25;;;;;;;16.08;9.48;;;2.70;99.90;;;;;;4989603;28;20109;-52
2021/01/07 00:30:51;;;;;;;16.23;9.75;;;2.80;99.90;;;;;;4971827;28;20035;-51
2021/01/07 00:33:19;;;;;;;16.70;9.45;;;2.80;99.90;;;;;;4975049;28;20477;-54
2021/01/07 00:35:45;;;;;;;17.63;7.72;;;2.80;99.90;;;;;;4989946;28;20046;-48
2021/01/07 00:38:11;;;;;;;15.80;9.10;;;2.80;99.90;;;;;;4987343;28;20097;-54
2021/01/07 00:40:37;;;;;;;16.70;7.28;;;2.70;99.90;;;;;;4985527;28;20038;-56
2021/01/07 00:43:03;;;;;;;12.77;5.63;;;2.70;99.90;;;;;;4989834;28;20026;-58
2021/01/07 00:45:30;;;;;;;16.20;6.90;;;2.70;99.90;;;;;;4989040;28;20198;-56
2021/01/07 00:47:55;;;;;;;13.75;6.20;;;2.80;99.90;;;;;;4989827;28;20030;-47
2021/01/07 00:50:22;;;;;;;18.92;6.47;;;2.80;99.90;;;;;;4987671;28;20041;-51
2021/01/07 00:52:47;;;;;;;16.00;6.88;;;2.90;99.90;;;;;;4989428;28;20134;-56
2021/01/07 00:55:15;;;;;;;20.50;7.68;;;2.90;99.90;;;;;;4988700;28;20121;-54
2021/01/07 00:57:41;;;;;;;14.32;6.80;;;2.90;99.90;;;;;;4989741;28;20092;-51
2021/01/07 01:00:08;;;;;;;17.23;6.78;;;2.90;99.90;;;;;;4988895;28;20081;-55
2021/01/07 01:02:34;;;;;;;16.35;6.80;;;2.90;99.90;;;;;;4989316;28;20030;-52
2021/01/07 01:05:01;;;;;;;13.95;6.32;;;2.90;99.90;;;;;;4987697;28;20061;-52
2021/01/07 01:07:27;;;;;;;13.80;6.22;;;2.90;99.90;;;;;;4989871;28;20061;-56
2021/01/07 01:09:54;;;;;;;15.85;6.95;;;2.90;99.90;;;;;;4988067;28;20038;-56
2021/01/07 01:12:20;;;;;;;11.52;6.20;;;2.90;99.90;;;;;;4988509;28;20104;-54
2021/01/07 01:14:46;;;;;;;12.70;5.55;;;2.90;99.90;;;;;;4989481;28;20109;-54
2021/01/07 01:17:12;;;;;;;12.15;5.53;;;2.90;99.90;;;;;;4988555;28;20172;-55
2021/01/07 01:19:37;;;;;;;11.30;4.97;;;2.90;99.90;;;;;;4988466;28;20498;-50
2021/01/07 01:22:04;;;;;;;12.75;5.55;;;2.90;99.90;;;;;;4986922;28;20483;-54
2021/01/07 01:24:29;;;;;;;12.10;5.32;;;2.90;99.90;;;;;;4984822;28;20586;-58
2021/01/07 01:26:59;;;;;;;13.10;5.88;;;2.90;99.90;;;;;;4989027;28;20070;-57
2021/01/07 01:29:25;;;;;;;9.52;4.78;;;2.90;99.90;;;;;;4988475;28;20068;-60
2021/01/07 01:31:52;;;;;;;10.32;5.30;;;2.90;99.90;;;;;;4988043;28;20034;-49
2021/01/07 01:34:19;;;;;;;18.30;6.55;;;2.90;99.90;;;;;;4988735;28;20032;-56
2021/01/07 01:36:45;;;;;;;11.60;5.45;;;2.90;99.90;;;;;;4989118;28;20067;-50
2021/01/07 01:39:11;;;;;;;11.07;5.43;;;2.90;99.90;;;;;;4987785;28;20072;-55
2021/01/07 01:41:55;;;;;;;12.13;5.50;;;2.90;99.90;;;;;;4988045;28;20034;-50
2021/01/07 01:44:23;;;;;;;13.73;5.95;;;2.90;99.90;;;;;;4987851;28;20042;-51
2021/01/07 01:46:48;;;;;;;13.00;6.90;;;2.90;99.90;;;;;;4988460;28;20046;-51
2021/01/07 01:49:15;;;;;;;11.10;6.63;;;2.90;99.90;;;;;;4989245;28;20545;-55
2021/01/07 01:51:41;;;;;;;15.98;7.15;;;2.80;99.90;;;;;;4988224;28;20042;-56
2021/01/07 01:54:07;;;;;;;13.25;7.85;;;2.80;99.90;;;;;;4987899;28;20037;-54
2021/01/07 01:56:34;;;;;;;10.68;6.40;;;2.80;99.90;;;;;;4989376;28;20367;-55
2021/01/07 01:59:00;;;;;;;12.13;6.60;;;2.80;99.90;;;;;;4988038;28;20471;-53
2021/01/07 02:01:26;;;;;;;11.10;6.60;;;2.90;99.90;;;;;;4989275;28;20432;-52
2021/01/07 02:03:53;;;;;;;10.57;6.28;;;2.80;99.90;;;;;;4988090;28;20122;-57
2021/01/07 02:06:22;;;;;;;11.18;5.57;;;2.80;99.90;;;;;;4988971;28;20049;-56
2021/01/07 02:08:48;;;;;;;7.30;4.82;;;2.80;99.90;;;;;;4987765;28;20092;-52
2021/01/07 02:11:15;;;;;;;9.65;4.88;;;2.80;99.90;;;;;;4987937;28;20501;-52
2021/01/07 02:13:45;;;;;;;9.40;5.18;;;2.90;99.90;;;;;;4988081;28;20026;-59
2021/01/07 02:16:11;;;;;;;11.65;5.63;;;2.90;99.90;;;;;;4989447;28;20038;-55
2021/01/07 02:18:37;;;;;;;14.35;6.82;;;2.90;99.90;;;;;;4988255;28;20042;-54
2021/01/07 02:21:04;;;;;;;16.88;6.63;;;2.90;99.90;;;;;;4989126;28;20107;-56
2021/01/07 02:23:29;;;;;;;16.80;7.20;;;2.90;99.90;;;;;;4987901;28;20037;-53
2021/01/07 02:25:56;;;;;;;15.85;6.35;;;2.90;99.90;;;;;;4987770;28;20402;-51
2021/01/07 02:28:23;;;;;;;20.42;7.60;;;2.90;99.90;;;;;;4987576;28;20397;-52
2021/01/07 02:30:48;;;;;;;16.65;7.38;;;2.90;99.90;;;;;;4989038;28;20121;-51
2021/01/07 02:33:14;;;;;;;18.40;6.97;;;2.80;99.90;;;;;;4987090;28;20117;-59
2021/01/07 02:35:40;;;;;;;22.42;7.57;;;2.80;99.90;;;;;;4983781;28;20054;-49
2021/01/07 02:38:06;;;;;;;16.75;7.13;;;2.80;99.90;;;;;;4986876;28;20537;-55
2021/01/07 02:40:33;;;;;;;20.90;7.15;;;2.90;99.90;;;;;;4987766;28;20539;-50
2021/01/07 02:43:02;;;;;;;18.15;6.93;;;2.80;99.90;;;;;;4988546;28;20426;-50
2021/01/07 02:45:35;;;;;;;14.32;6.07;;;2.80;99.90;;;;;;4987701;28;20387;-50
2021/01/07 02:48:00;;;;;;;15.73;7.20;;;2.90;99.90;;;;;;4988704;28;20034;-60
2021/01/07 02:50:26;;;;;;;15.57;6.85;;;2.90;99.90;;;;;;4987034;28;20034;-55
2021/01/07 02:52:52;;;;;;;18.58;6.65;;;2.90;99.90;;;;;;4992394;28;20125;-52
2021/01/07 02:55:18;;;;;;;16.17;7.40;;;2.90;99.90;;;;;;4990330;28;20037;-56
2021/01/07 02:57:43;;;;;;;16.15;7.10;;;2.90;99.90;;;;;;4992055;28;20390;-58
2021/01/07 03:00:09;;;;;;;15.77;7.10;;;2.90;99.90;;;;;;4991775;28;20065;-55
2021/01/07 03:05:11;;;;;;;15.60;5.80;;;2.90;99.90;;;;;;5012680;23;20141;-56
2021/01/07 03:07:37;;;;;;;14.45;6.35;;;3.00;99.90;;;;;;4991913;28;20042;-53
2021/01/07 03:10:07;;;;;;;15.90;6.65;;;3.00;99.90;;;;;;4991924;28;20041;-60
2021/01/07 03:12:32;;;;;;;14.40;5.93;;;3.00;99.90;;;;;;4990695;28;20034;-59
2021/01/07 03:14:58;;;;;;;17.15;6.40;;;3.00;99.90;;;;;;4990687;28;20521;-53
2021/01/07 03:17:24;;;;;;;18.15;6.53;;;2.90;99.90;;;;;;4991732;28;20417;-58
2021/01/07 03:19:50;;;;;;;17.15;6.45;;;2.90;99.90;;;;;;4990496;28;20406;-59
2021/01/07 03:22:15;;;;;;;19.42;7.38;;;2.90;99.90;;;;;;4991732;28;20041;-52
2021/01/07 03:24:41;;;;;;;20.88;7.25;;;2.90;99.90;;;;;;4990473;28;20113;-52
2021/01/07 03:27:07;;;;;;;18.58;7.45;;;2.90;99.90;;;;;;4991813;28;20556;-56
2021/01/07 03:29:33;;;;;;;13.85;7.20;;;2.80;99.90;;;;;;4990263;28;20034;-58
2021/01/07 03:31:59;;;;;;;15.05;6.65;;;2.80;99.90;;;;;;4991507;28;20129;-59
2021/01/07 03:34:25;;;;;;;14.55;6.82;;;2.80;99.90;;;;;;4990354;28;20026;-56
2021/01/07 03:36:51;;;;;;;12.10;6.68;;;2.80;99.90;;;;;;4989370;28;20521;-56
2021/01/07 03:39:17;;;;;;;10.00;4.65;;;2.80;99.90;;;;;;4991651;28;20034;-53
2021/01/07 03:41:43;;;;;;;7.38;3.92;;;2.90;99.90;;;;;;4990193;28;20034;-54
2021/01/07 03:44:10;;;;;;;6.65;3.10;;;2.90;99.90;;;;;;4990093;28;20061;-56
2021/01/07 03:46:36;;;;;;;7.22;3.58;;;2.90;99.90;;;;;;4991461;28;20088;-57
2021/01/07 03:49:02;;;;;;;7.72;3.00;;;3.00;99.90;;;;;;4990161;28;20030;-56
2021/01/07 03:51:28;;;;;;;9.80;3.75;;;3.00;99.90;;;;;;4991208;28;20037;-52
2021/01/07 03:53:54;;;;;;;10.02;4.53;;;3.00;99.90;;;;;;4989459;28;20482;-57
2021/01/07 03:56:19;;;;;;;11.60;4.43;;;3.00;99.90;;;;;;4990854;28;20042;-55
2021/01/07 03:58:45;;;;;;;9.80;4.75;;;3.00;99.90;;;;;;4989539;28;20205;-59
2021/01/07 04:01:11;;;;;;;9.98;4.70;;;2.90;99.90;;;;;;4989269;28;20034;-53
2021/01/07 04:03:37;;;;;;;13.25;4.90;;;3.00;99.90;;;;;;4990080;28;20041;-56
2021/01/07 04:06:02;;;;;;;8.15;4.60;;;3.00;99.90;;;;;;4990556;28;20061;-58
2021/01/07 04:08:28;;;;;;;10.18;4.57;;;3.00;99.90;;;;;;4988749;28;20030;-54
2021/01/07 04:10:54;;;;;;;14.10;5.88;;;2.90;99.90;;;;;;4990519;28;20038;-52
2021/01/07 04:13:20;;;;;;;13.27;5.45;;;2.90;99.90;;;;;;4989611;28;20030;-50
2021/01/07 04:15:45;;;;;;;13.80;6.35;;;2.90;99.90;;;;;;4990614;28;20463;-52
2021/01/07 04:18:11;;;;;;;11.63;5.15;;;2.90;99.90;;;;;;4990469;28;20125;-54
2021/01/07 04:20:37;;;;;;;14.05;5.97;;;2.90;99.90;;;;;;4987140;28;20066;-55
2021/01/07 04:23:03;;;;;;;13.90;5.70;;;2.90;99.90;;;;;;4990462;28;20386;-59
2021/01/07 04:25:28;;;;;;;14.73;5.53;;;3.00;99.90;;;;;;4989231;28;20054;-50
2021/01/07 04:27:54;;;;;;;13.50;6.50;;;3.00;99.90;;;;;;4990396;28;20031;-58
2021/01/07 04:30:20;;;;;;;12.55;5.60;;;3.00;99.90;;;;;;4989266;28;20042;-56
2021/01/07 04:32:46;;;;;;;14.15;5.03;;;3.00;99.90;;;;;;4989081;28;20034;-59
2021/01/07 04:35:12;;;;;;;13.38;5.53;;;2.90;99.90;;;;;;4982904;28;20034;-56
2021/01/07 04:37:38;;;;;;;10.07;5.32;;;3.00;99.90;;;;;;4989320;28;20177;-56
2021/01/07 04:40:05;;;;;;;14.15;5.93;;;3.00;99.90;;;;;;4989062;28;20038;-52
2021/01/07 04:42:30;;;;;;;14.07;5.25;;;2.90;99.90;;;;;;4990322;28;20038;-57
2021/01/07 04:44:57;;;;;;;11.73;5.28;;;2.90;99.90;;;;;;4988258;28;20112;-54
2021/01/07 04:47:26;;;;;;;18.60;5.95;;;3.00;99.90;;;;;;4990119;28;20041;-54
2021/01/07 04:49:52;;;;;;;11.48;5.57;;;3.00;99.90;;;;;;4987829;28;20505;-54
2021/01/07 04:52:18;;;;;;;12.93;5.53;;;2.90;99.90;;;;;;4990107;28;20030;-49
2021/01/07 04:54:44;;;;;;;12.80;6.03;;;2.90;99.90;;;;;;4987154;28;20038;-54
2021/01/07 04:57:10;;;;;;;13.65;5.78;;;2.90;99.90;;;;;;4990097;28;20042;-58
2021/01/07 04:59:36;;;;;;;10.98;5.25;;;2.90;99.90;;;;;;4988851;28;20129;-48
2021/01/07 05:02:05;;;;;;;10.85;5.22;;;2.90;99.90;;;;;;4989821;28;20056;-51
2021/01/07 05:04:31;;;;;;;13.57;5.53;;;3.00;99.90;;;;;;4987188;28;20058;-48
2021/01/07 05:07:00;;;;;;;9.95;4.95;;;2.90;99.90;;;;;;4989644;28;20035;-52
2021/01/07 05:09:28;;;;;;;13.32;4.82;;;3.00;99.90;;;;;;4988981;28;20048;-57
2021/01/07 05:11:54;;;;;;;10.68;4.90;;;3.00;99.90;;;;;;4989485;28;20034;-52
2021/01/07 05:14:20;;;;;;;12.20;5.28;;;3.00;99.90;;;;;;4988538;28;20546;-55
2021/01/07 05:16:46;;;;;;;11.52;4.47;;;3.00;99.90;;;;;;4989562;28;20033;-55
2021/01/07 05:19:11;;;;;;;10.68;4.97;;;3.00;99.90;;;;;;4989000;28;20034;-56
2021/01/07 05:21:39;;;;;;;12.05;4.53;;;3.00;99.90;;;;;;4989568;28;20448;-52
2021/01/07 05:24:05;;;;;;;11.82;5.13;;;3.00;99.90;;;;;;4987864;28;20030;-54
2021/01/07 05:26:31;;;;;;;10.32;5.20;;;3.00;99.90;;;;;;4989853;28;20045;-49
2021/01/07 05:28:59;;;;;;;13.55;5.50;;;3.00;99.90;;;;;;4987694;28;20034;-47
2021/01/07 05:31:26;;;;;;;11.98;5.65;;;3.00;99.90;;;;;;4987581;28;20479;-50
2021/01/07 05:33:53;;;;;;;10.25;4.57;;;3.00;99.90;;;;;;4985111;28;20112;-57
2021/01/07 05:36:32;;;;;;;8.63;4.35;;;3.00;99.90;;;;;;4989273;28;20022;-50
2021/01/07 05:39:03;;;;;;;12.52;4.90;;;2.90;99.90;;;;;;4987647;28;20027;-52
2021/01/07 05:41:29;;;;;;;10.77;4.60;;;2.90;99.90;;;;;;4985653;28;20030;-54
2021/01/07 05:44:06;;;;;;;12.18;5.35;;;2.90;99.90;;;;;;4985944;28;20038;-53
2021/01/07 05:46:34;;;;;;;10.70;5.60;;;2.90;99.90;;;;;;4988402;28;20034;-59
2021/01/07 05:49:00;;;;;;;8.68;4.40;;;2.90;99.90;;;;;;4988926;28;20030;-57
2021/01/07 05:51:28;;;;;;;15.88;5.60;;;2.90;99.90;;;;;;4987450;28;20034;-51
2021/01/07 05:53:55;;;;;;;16.08;6.18;;;2.90;99.90;;;;;;4989157;28;20482;-52
2021/01/07 05:56:22;;;;;;;12.77;6.30;;;3.00;99.90;;;;;;4987405;28;20085;-57
2021/01/07 05:58:49;;;;;;;19.25;7.00;;;2.90;99.90;;;;;;4989218;28;20053;-55
2021/01/07 06:01:20;;;;;;;14.57;6.38;;;3.00;99.90;;;;;;4985388;28;20061;-54
2021/01/07 06:03:48;;;;;;;11.80;6.05;;;2.90;99.90;;;;;;4987270;28;20042;-57
2021/01/07 06:06:16;;;;;;;12.55;5.75;;;3.00;99.90;;;;;;4988913;28;20061;-60
2021/01/07 06:08:47;;;;;;;13.10;5.70;;;3.00;99.90;;;;;;4988476;28;20391;-58
2021/01/07 06:11:15;;;;;;;14.60;6.43;;;3.00;99.90;;;;;;4989104;28;20434;-54
2021/01/07 06:13:43;;;;;;;18.10;5.88;;;3.00;99.90;;;;;;4986524;28;20038;-58
2021/01/07 06:16:14;;;;;;;14.82;5.32;;;3.00;99.90;;;;;;4977640;28;20590;-60
2021/01/07 06:18:42;;;;;;;13.65;6.55;;;3.00;99.90;;;;;;4988545;28;20125;-53
2021/01/07 06:21:10;;;;;;;19.10;6.38;;;3.00;99.90;;;;;;4987731;28;20034;-51
2021/01/07 06:23:46;;;;;;;11.88;5.68;;;3.00;99.90;;;;;;4989905;28;20062;-58
2021/01/07 06:26:32;;;;;;;15.52;6.53;;;3.00;99.90;;;;;;4992545;28;20136;-54
2021/01/07 06:29:00;;;;;;;15.13;6.32;;;3.00;99.90;;;;;;4992782;28;20116;-55
2021/01/07 06:31:36;;;;;;;15.07;6.22;;;3.00;99.90;;;;;;4992540;28;20038;-56
2021/01/07 06:34:04;;;;;;;14.00;6.35;;;3.00;99.90;;;;;;4992372;28;20104;-62
2021/01/07 06:36:46;;;;;;;11.15;5.63;;;3.00;99.90;;;;;;4990702;28;20035;-55
2021/01/07 06:39:12;;;;;;;10.68;5.40;;;3.00;99.90;;;;;;4992679;28;20069;-56
2021/01/07 06:41:38;;;;;;;11.68;5.93;;;3.00;99.90;;;;;;4987570;28;20512;-58
2021/01/07 06:44:05;;;;;;;14.95;6.35;;;3.00;99.90;;;;;;4979495;28;20509;-58
2021/01/07 06:46:42;;;;;;;14.13;5.45;;;3.10;99.90;;;;;;4972838;28;20105;-53
2021/01/07 06:49:26;;;;;;;15.10;6.32;;;3.00;99.90;;;;;;4987525;28;20084;-58
2021/01/07 06:52:02;;;;;;;12.35;6.43;;;3.00;99.90;;;;;;4992185;28;20042;-58
2021/01/07 06:54:47;;;;;;;13.77;5.85;;;3.00;99.90;;;;;;5001812;28;20026;-59
2021/01/07 06:57:16;;;;;;;11.25;5.93;;;3.00;99.90;;;;;;4985990;28;20031;-56
2021/01/07 07:00:02;;;;;;;14.13;6.13;;;3.00;99.90;;;;;;4980976;28;20030;-56
2021/01/07 07:02:29;;;;;;;13.68;5.43;;;3.00;99.90;;;;;;4987315;28;20038;-55
2021/01/07 07:05:09;;;;;;;13.40;6.00;;;3.00;99.90;;;;;;4980031;28;20062;-56
2021/01/07 07:07:37;;;;;;;13.73;5.70;;;3.00;99.90;;;;;;4973923;28;20540;-56
2021/01/07 07:10:32;;;;;;;16.60;6.50;;;3.00;99.90;;;;;;4991949;28;20065;-52
2021/01/07 07:12:59;;;;;;;12.35;5.72;;;3.00;99.90;;;;;;4933379;28;20596;-56
2021/01/07 07:15:27;;;;;;;15.32;6.45;;;3.00;99.90;;;;;;4988725;28;20053;-59
2021/01/07 07:17:55;;;;;;;10.40;5.15;;;3.00;99.90;;;;;;4990555;28;20062;-51
2021/01/07 07:20:25;;;;;;;11.88;5.75;;;3.10;99.90;;;;;;4986631;28;20089;-56
2021/01/07 07:22:51;;;;;;;10.07;4.75;;;3.00;99.90;;;;;;4991834;28;20454;-59
2021/01/07 07:25:24;;;;;;;9.63;4.93;;;3.10;99.90;;;;;;4991625;28;20045;-54
2021/01/07 07:28:08;;;;;;;12.85;5.63;;;3.10;99.90;;;;;;4991496;28;20101;-56
2021/01/07 07:30:34;;;;;;;10.88;4.55;;;3.10;99.90;;;;;;4991377;28;20141;-54
2021/01/07 07:33:02;;;;;;;11.98;4.47;;;3.20;99.90;;;;;;4991242;28;20125;-58
2021/01/07 07:35:30;;;;;;;8.35;4.55;;;3.20;99.90;;;;;;4990440;28;20026;-61
2021/01/07 07:37:57;;;;;;;14.07;6.30;;;3.20;99.90;;;;;;4991312;28;20022;-54
2021/01/07 07:40:40;;;;;;;12.55;5.35;;;3.30;99.90;;;;;;4991185;28;20652;-58
2021/01/07 07:43:10;;;;;;;8.82;4.57;;;3.20;99.90;;;;;;4991215;28;20065;-59
2021/01/07 07:45:40;;;;;;;11.00;5.57;;;3.30;99.90;;;;;;4990598;28;20121;-55
2021/01/07 07:48:08;;;;;;;7.93;4.50;;;3.30;99.90;;;;;;4991094;28;20366;-58
2021/01/07 07:50:34;;;;;;;10.70;5.25;;;3.30;99.90;;;;;;4990948;28;20038;-52
2021/01/07 07:53:14;;;;;;;12.85;5.40;;;3.40;99.90;;;;;;4990769;28;20041;-55
2021/01/07 07:55:44;;;;;;;12.45;6.07;;;3.40;99.90;;;;;;4990790;28;20310;-57
2021/01/07 07:58:11;;;;;;;13.98;6.75;;;3.30;99.90;;;;;;4990643;28;20517;-57
2021/01/07 08:00:38;;;;;;;16.20;6.05;;;3.30;99.90;;;;;;4990808;28;20026;-56
2021/01/07 08:03:04;;;;;;;13.70;7.47;;;3.20;99.90;;;;;;4990682;28;20042;-55
2021/01/07 08:05:31;;;;;;;15.65;6.28;;;3.30;99.90;;;;;;4990082;28;20092;-56
2021/01/07 08:07:58;;;;;;;15.57;7.40;;;3.30;99.90;;;;;;4990502;28;20038;-58
2021/01/07 08:10:43;;;;;;;14.60;7.13;;;3.40;99.90;;;;;;4990311;28;20461;-53
2021/01/07 08:13:35;;;;;;;14.05;6.20;;;3.40;99.90;;;;;;4990607;28;20034;-57
2021/01/07 08:16:00;;;;;;;12.18;6.28;;;3.50;99.90;;;;;;4990316;28;20030;-59
2021/01/07 08:18:27;;;;;;;23.42;10.32;;;3.60;99.90;;;;;;4990388;28;20148;-56
2021/01/07 08:21:07;;;;;;;25.63;10.77;;;3.60;99.90;;;;;;4990440;28;20022;-56
2021/01/07 08:23:38;;;;;;;26.33;10.95;;;3.70;99.90;;;;;;4990476;28;20041;-55
2021/01/07 08:26:05;;;;;;;25.00;10.38;;;3.70;99.90;;;;;;4989944;28;20038;-54
2021/01/07 08:28:40;;;;;;;21.67;9.20;;;3.70;99.90;;;;;;4990252;28;20046;-55
2021/01/07 08:31:29;;;;;;;33.03;12.50;;;3.80;99.90;;;;;;4990414;28;20144;-58
2021/01/07 08:33:56;;;;;;;14.48;6.97;;;3.80;99.90;;;;;;4990204;28;20065;-58
2021/01/07 08:36:29;;;;;;;14.55;5.93;;;3.90;99.90;;;;;;4990008;28;20533;-57
2021/01/07 08:38:58;;;;;;;20.30;9.35;;;3.90;99.90;;;;;;4990012;28;20118;-55
2021/01/07 08:41:30;;;;;;;15.23;8.35;;;3.90;99.90;;;;;;4989941;28;20042;-57
2021/01/07 08:43:58;;;;;;;16.23;5.85;;;3.90;99.90;;;;;;4983293;28;20034;-57
2021/01/07 08:46:36;;;;;;;14.45;6.20;;;3.90;99.90;;;;;;4981334;28;20150;-56
2021/01/07 08:49:07;;;;;;;11.07;5.28;;;3.90;99.90;;;;;;4990215;28;20608;-59
2021/01/07 08:51:38;;;;;;;8.15;4.93;;;4.00;99.90;;;;;;4990205;28;20442;-54
2021/01/07 08:54:18;;;;;;;9.23;5.22;;;4.10;99.90;;;;;;4989384;28;20042;-59
2021/01/07 08:56:46;;;;;;;9.68;5.28;;;4.10;99.90;;;;;;4985260;28;20034;-58
2021/01/07 08:59:27;;;;;;;14.55;5.97;;;4.20;99.90;;;;;;5007907;28;20038;-54
2021/01/07 09:01:55;;;;;;;11.15;4.88;;;4.20;99.90;;;;;;5001826;28;20473;-55
2021/01/07 09:04:43;;;;;;;9.30;4.75;;;4.20;99.90;;;;;;4989266;28;20154;-60
2021/01/07 09:07:15;;;;;;;9.32;4.15;;;4.30;99.90;;;;;;4989541;28;20038;-60
2021/01/07 09:09:41;;;;;;;9.98;4.78;;;4.20;99.90;;;;;;4989823;28;20031;-56
2021/01/07 09:12:11;;;;;;;10.07;5.18;;;4.30;99.90;;;;;;4989475;28;20432;-58
2021/01/07 09:14:56;;;;;;;10.50;4.72;;;4.30;99.90;;;;;;5001284;28;20022;-57
2021/01/07 09:17:57;;;;;;;12.32;4.72;;;4.40;99.90;;;;;;5009070;28;20482;-54
2021/01/07 09:20:29;;;;;;;13.73;6.72;;;4.40;99.90;;;;;;5008987;28;20485;-52
2021/01/07 09:23:09;;;;;;;15.25;6.50;;;4.40;99.90;;;;;;5009592;28;20037;-58
2021/01/07 09:26:13;;;;;;;12.15;6.05;;;4.40;99.90;;;;;;5008766;28;20034;-52
2021/01/07 09:28:38;;;;;;;13.00;5.93;;;4.40;99.90;;;;;;5008855;28;20041;-56
2021/01/07 09:31:04;;;;;;;11.13;4.82;;;4.40;99.90;;;;;;5008684;28;20030;-56
2021/01/07 09:33:30;;;;;;;12.93;4.90;;;4.50;99.90;;;;;;5009133;28;20041;-58
2021/01/07 09:36:08;;;;;;;10.60;5.00;;;4.50;99.90;;;;;;5008962;28;20052;-53
2021/01/07 09:38:33;;;;;;;10.50;5.30;;;4.50;99.90;;;;;;5008274;28;20117;-54
2021/01/07 09:40:59;;;;;;;9.38;5.10;;;4.60;99.90;;;;;;4989404;28;20190;-52
2021/01/07 09:43:25;;;;;;;9.25;4.60;;;4.60;99.90;;;;;;4989266;28;20042;-54
2021/01/07 09:45:51;;;;;;;13.02;5.55;;;4.70;99.90;;;;;;4987775;28;20406;-54
2021/01/07 09:48:16;;;;;;;10.27;5.13;;;4.70;99.90;;;;;;4988912;28;20069;-54
2021/01/07 09:50:42;;;;;;;8.85;4.75;;;4.70;99.90;;;;;;4989264;28;20082;-58
2021/01/07 09:53:08;;;;;;;10.95;5.22;;;4.70;99.90;;;;;;4986585;28;20042;-60
2021/01/07 09:55:33;;;;;;;13.05;5.43;;;4.80;99.90;;;;;;4987407;28;20435;-57
2021/01/07 09:57:59;;;;;;;11.18;5.78;;;4.80;99.90;;;;;;4989086;28;20034;-58
2021/01/07 10:00:25;;;;;;;11.32;5.60;;;4.90;99.90;;;;;;4992335;28;20047;-54
2021/01/07 10:02:51;;;;;;;13.20;6.22;;;4.90;99.90;;;;;;4973360;28;20027;-54
2021/01/07 10:05:16;;;;;;;15.23;5.63;;;4.80;99.90;;;;;;4973765;28;20058;-50
2021/01/07 10:07:42;;;;;;;8.68;4.53;;;4.90;99.90;;;;;;4992493;28;20062;-56
2021/01/07 10:10:08;;;;;;;11.18;5.75;;;4.90;99.90;;;;;;4992879;28;20077;-50
2021/01/07 10:12:34;;;;;;;9.73;4.78;;;5.00;99.90;;;;;;4973663;28;20483;-52
2021/01/07 10:15:00;;;;;;;11.70;5.82;;;5.00;99.90;;;;;;4979210;28;20035;-53
2021/01/07 10:17:26;;;;;;;11.93;5.07;;;5.00;99.90;;;;;;4974291;28;20031;-54
2021/01/07 10:19:51;;;;;;;9.88;5.07;;;5.00;99.90;;;;;;4973453;28;20035;-54
2021/01/07 10:22:23;;;;;;;9.82;4.90;;;5.10;99.90;;;;;;4975803;28;20055;-57
2021/01/07 10:24:48;;;;;;;15.85;6.07;;;5.10;99.90;;;;;;4988265;28;20085;-59
2021/01/07 10:27:17;;;;;;;9.35;4.80;;;5.20;99.90;;;;;;4983006;28;20458;-54
2021/01/07 10:29:44;;;;;;;9.63;4.85;;;5.30;99.90;;;;;;4991078;28;20079;-55
2021/01/07 10:32:12;;;;;;;9.48;5.82;;;5.20;99.90;;;;;;4973326;28;20122;-54
2021/01/07 10:34:39;;;;;;;10.45;5.10;;;5.30;99.90;;;;;;4984272;28;20026;-55
2021/01/07 10:37:07;;;;;;;10.50;5.80;;;5.30;99.90;;;;;;4982914;28;20030;-52
2021/01/07 10:39:35;;;;;;;11.90;4.75;;;5.30;99.90;;;;;;4988725;28;20417;-55
2021/01/07 10:42:13;;;;;;;;;;;;;;;;;;;;;
2021/01/07 10:44:40;;;;;;;9.43;4.90;;;5.40;99.90;;;;;;4979906;28;20058;-55
2021/01/07 10:47:08;;;;;;;8.88;4.80;;;5.40;99.90;;;;;;4978362;28;20153;-57
2021/01/07 10:49:36;;;;;;;9.60;5.00;;;5.40;99.90;;;;;;4992105;28;20039;-53
2021/01/07 10:52:07;;;;;;;8.13;4.43;;;5.40;99.90;;;;;;4975969;28;20177;-52
2021/01/07 10:55:14;;;;;;;11.73;5.65;;;5.40;99.90;;;;;;4984588;28;20030;-50
2021/01/07 10:58:11;;;;;;;10.23;4.57;;;5.50;99.90;;;;;;4990198;28;20081;-48
2021/01/07 11:00:52;;;;;;;12.30;5.38;;;5.40;99.90;;;;;;4992330;28;20438;-50
2021/01/07 11:03:51;;;;;;;10.40;5.43;;;5.50;99.90;;;;;;4988345;28;20030;-51
2021/01/07 11:06:20;;;;;;;16.98;7.30;;;5.50;99.90;;;;;;4991728;28;20054;-56
2021/01/07 11:09:03;;;;;;;18.55;6.82;;;5.60;99.90;;;;;;4986472;28;20031;-56
2021/01/07 11:11:36;;;;;;;19.25;7.82;;;5.60;99.90;;;;;;4990707;28;20555;-54
2021/01/07 11:14:14;;;;;;;16.30;6.80;;;5.70;99.90;;;;;;4976572;28;20053;-53
2021/01/07 11:16:53;;;;;;;16.20;7.10;;;5.70;99.90;;;;;;4991611;28;20042;-46
2021/01/07 11:19:26;;;;;;;22.88;8.38;;;5.70;99.90;;;;;;4983906;28;20051;-53
2021/01/07 11:22:05;;;;;;;21.40;7.97;;;5.80;99.90;;;;;;4972552;28;20031;-53
2021/01/07 11:24:31;;;;;;;16.20;6.60;;;5.90;99.90;;;;;;4972028;28;20059;-54
2021/01/07 11:27:02;;;;;;;15.63;6.90;;;6.00;99.90;;;;;;4990183;28;20509;-53
2021/01/07 11:29:30;;;;;;;10.80;5.30;;;6.00;99.90;;;;;;4990800;28;20030;-56
2021/01/07 11:31:58;;;;;;;10.27;5.93;;;6.00;99.90;;;;;;4991468;28;20038;-54
2021/01/07 11:34:25;;;;;;;11.10;4.72;;;6.10;99.90;;;;;;4978265;28;20076;-57
2021/01/07 11:37:09;;;;;;;13.02;5.97;;;6.20;99.90;;;;;;4971795;28;20502;-50
2021/01/07 11:40:08;;;;;;;10.07;4.60;;;6.20;99.90;;;;;;4984184;28;20065;-55
2021/01/07 11:42:56;;;;;;;8.27;4.13;;;6.20;99.90;;;;;;4987244;28;20117;-51
2021/01/07 11:45:32;;;;;;;6.95;4.47;;;6.20;99.90;;;;;;4988592;28;20050;-54
2021/01/07 11:48:05;;;;;;;7.47;4.43;;;6.10;99.90;;;;;;4971831;28;20114;-55
2021/01/07 11:50:43;;;;;;;7.75;3.85;;;6.10;99.90;;;;;;4971893;28;20065;-45
2021/01/07 11:53:09;;;;;;;4.75;3.30;;;6.10;99.90;;;;;;4977415;28;20197;-54
2021/01/07 11:55:36;;;;;;;4.68;2.15;;;6.20;99.90;;;;;;4976840;28;20034;-54
2021/01/07 11:58:03;;;;;;;3.30;2.10;;;6.40;99.90;;;;;;4977895;28;20026;-57
2021/01/07 12:00:29;;;;;;;5.20;2.50;;;6.50;99.90;;;;;;4971720;28;20058;-56
2021/01/07 12:02:56;;;;;;;6.75;2.15;;;6.40;99.90;;;;;;4991178;28;20034;-55
2021/01/07 12:05:41;;;;;;;4.88;2.00;;;6.40;99.90;;;;;;4987112;28;20043;-57
2021/01/07 12:08:18;;;;;;;3.47;1.73;;;6.40;99.90;;;;;;4977928;28;20455;-56
2021/01/07 12:10:46;;;;;;;3.70;2.17;;;6.30;99.90;;;;;;4990302;28;20045;-50
2021/01/07 12:13:23;;;;;;;7.07;2.15;;;6.30;99.90;;;;;;4989870;28;20042;-56
2021/01/07 12:15:51;;;;;;;3.55;1.85;;;6.20;99.90;;;;;;4980453;28;20035;-52
2021/01/07 12:18:18;;;;;;;3.65;1.80;;;6.20;99.90;;;;;;4975455;28;20039;-51
2021/01/07 12:20:47;;;;;;;5.75;2.05;;;6.20;99.90;;;;;;4970978;28;20066;-55
2021/01/07 12:23:14;;;;;;;4.25;2.42;;;6.10;99.90;;;;;;4983085;28;20441;-54
2021/01/07 12:25:42;;;;;;;2.97;1.70;;;6.10;99.90;;;;;;4990348;28;20144;-56
2021/01/07 12:28:14;;;;;;;6.18;2.42;;;6.00;99.90;;;;;;4978433;28;20084;-58
2021/01/07 12:30:49;;;;;;;7.72;2.63;;;6.00;99.90;;;;;;4972883;28;20398;-52
2021/01/07 12:33:59;;;;;;;3.33;2.20;;;6.00;99.90;;;;;;4988099;28;20116;-50
2021/01/07 12:36:43;;;;;;;6.78;2.65;;;6.00;99.90;;;;;;4973081;28;20113;-54
2021/01/07 12:39:24;;;;;;;5.13;2.60;;;6.00;99.90;;;;;;4983764;28;20038;-50
2021/01/07 12:41:54;;;;;;;6.00;2.80;;;6.00;99.90;;;;;;4986473;28;20137;-51
2021/01/07 12:44:23;;;;;;;7.82;4.18;;;6.00;99.90;;;;;;4988762;28;20036;-55
2021/01/07 12:46:54;;;;;;;8.73;4.70;;;6.10;99.90;;;;;;4982319;28;20585;-49
2021/01/07 12:49:20;;;;;;;8.40;3.65;;;6.10;99.90;;;;;;4974636;28;20038;-53
2021/01/07 12:51:47;;;;;;;3.67;1.77;;;6.10;99.90;;;;;;4989545;28;20026;-55
2021/01/07 12:54:14;;;;;;;4.35;1.60;;;6.10;99.90;;;;;;4980752;28;20030;-58
2021/01/07 12:56:48;;;;;;;3.47;1.30;;;6.10;99.90;;;;;;4976598;28;21846;-53
2021/01/07 12:59:22;;;;;;;2.97;1.30;;;6.00;99.90;;;;;;4977628;28;20034;-55
2021/01/07 13:01:58;;;;;;;2.40;0.90;;;6.00;99.90;;;;;;4970758;28;20105;-52
2021/01/07 13:04:43;;;;;;;2.53;0.95;;;6.10;99.90;;;;;;4987113;28;20097;-47
2021/01/07 13:07:09;;;;;;;2.83;0.77;;;6.10;99.90;;;;;;4990279;28;20068;-52